Aérodrome :
LOGIN :

S'inscrire | Disclaimer

   EN    FR    IT 

 










Légende :    VFR   VFR Marginal   IFR   IFR Intensif   IFR Très Intensif
Visi : 
Plafond : 
>= 8 km
>= 3000ft
5 à 8 km
1000 à 3000 ft
1500m à 5 km
500 à 1000 ft
800 à 1500m
200 à 500 ft
< 800m
< 200 ft
Symboles :   Orages  Brouillard  Fortes neiges  Fortes précipitations  Vent > 20 kt
SIGMETs :   Divers  Orages  Givrage  Turbulence  Onde Orograph.  Cendres Volcan.






- Altitude de l'aérodrome : 203 ft
- Code IATA : XMJ


LFBM - Mont-De-Marsan

DERNIER METAR :
  • 230930Z AUTO 21007KT 180V240 9999 BKN016/// BKN024/// OVC034/// ///CB 15/13 Q1020 TEMPO 4000 SHRA

METARs EXPIRÉS :
  • 230900Z AUTO 27009KT 9999 BKN015/// BKN021/// BKN068/// ///CB 16/12 Q1020 TEMPO 4000 SHRA
  • 230830Z AUTO 23006KT 190V290 9999 FEW008/// BKN012/// BKN068/// ///CB 16/14 Q1020 TEMPO 4000 SHRA SCT020TCU
  • 230800Z AUTO 22005KT 190V250 9999 FEW006 BKN050 OVC062 14/13 Q1020
  • 230730Z AUTO 25008KT 220V290 9999 -RA BKN010/// BKN018/// BKN030/// ///TCU 14/13 Q1020 TEMPO 4000 SHRA SCT020TCU
  • 230700Z AUTO 25007KT 210V280 9999 BKN009 BKN066 BKN082 14/13 Q1020 TEMPO 4000 SHRA SCT020TCU
  • 230630Z AUTO 24007KT 200V280 9999 SCT008 BKN015 BKN021 13/12 Q1020 TEMPO 4000 SHRA SCT020TCU
  • 230600Z AUTO 24005KT 210V270 9999 FEW020/// SCT060/// BKN074/// ///TCU 13/12 Q1020 TEMPO 4000 SHRA
  • 230530Z AUTO 22005KT 9999 FEW013 SCT024 BKN062 12/12 Q1019 TEMPO 4000 SHRA SCT020TCU
  • 230500Z AUTO 24004KT 210V270 9999 -RA FEW007 SCT013 BKN019 12/12 Q1019 TEMPO 4000 SHRA SCT020TCU

TAF TAF LFBM
Valide du 23 à 09h jusqu'au 24 à 09h UTC


230800Z 2309/2409 27010KT 9999 SCT025
TEMPO 2309/2315 4000 SHRA SCT020TCU
PROB30
TEMPO 2403/2408 0800 FG SCT002



MET'MAP, la Météo Aéronautique d'un coup d'oeil ! - Copyright ORBIFLY Décembre 2007 - Disclaimer

ORBIFLY MET'MAP TEAM :

Programmation & Développement : Alexandra Zaïnal
Sur une idée originale de : Baudouin d'Aumeries
Soutien technique & logistique : Manuel Goepfert
Assistance : Marc-Olivier Méhu




SOURCES & CREDITS :

   NOAA